sensor_id;sensor_type;location;lat;lon;timestamp;pressure;altitude;pressure_sealevel;temperature;humidity
51261;BME280;61705;46.228;24.812;2023-02-14T00:01:58;99045.88;;;-2.52;82.20
51261;BME280;61705;46.228;24.812;2023-02-14T00:04:24;99055.34;;;-2.53;82.45
51261;BME280;61705;46.228;24.812;2023-02-14T00:06:51;99049.28;;;-2.53;82.51
51261;BME280;61705;46.228;24.812;2023-02-14T00:09:20;99031.06;;;-2.56;82.36
51261;BME280;61705;46.228;24.812;2023-02-14T00:11:54;99031.88;;;-2.59;82.58
51261;BME280;61705;46.228;24.812;2023-02-14T00:14:20;99033.63;;;-2.58;82.58
51261;BME280;61705;46.228;24.812;2023-02-14T00:17:06;99014.66;;;-2.58;82.79
51261;BME280;61705;46.228;24.812;2023-02-14T00:19:38;99016.28;;;-2.62;82.88
51261;BME280;61705;46.228;24.812;2023-02-14T00:22:04;99014.47;;;-2.65;83.10
51261;BME280;61705;46.228;24.812;2023-02-14T00:24:31;99013.06;;;-2.53;82.78
51261;BME280;61705;46.228;24.812;2023-02-14T00:27:04;99000.03;;;-2.56;82.45
51261;BME280;61705;46.228;24.812;2023-02-14T00:29:33;98992.16;;;-2.61;82.70
51261;BME280;61705;46.228;24.812;2023-02-14T00:32:05;98988.66;;;-2.63;82.76
51261;BME280;61705;46.228;24.812;2023-02-14T00:34:32;98995.78;;;-2.54;82.71
51261;BME280;61705;46.228;24.812;2023-02-14T00:37:04;98999.97;;;-2.59;82.86
51261;BME280;61705;46.228;24.812;2023-02-14T00:39:32;99016.97;;;-2.68;82.81
51261;BME280;61705;46.228;24.812;2023-02-14T00:42:03;98997.00;;;-2.73;83.11
51261;BME280;61705;46.228;24.812;2023-02-14T00:44:30;99006.50;;;-2.72;83.38
51261;BME280;61705;46.228;24.812;2023-02-14T00:46:58;99001.44;;;-2.68;83.31
51261;BME280;61705;46.228;24.812;2023-02-14T00:49:25;99011.69;;;-2.71;83.29
51261;BME280;61705;46.228;24.812;2023-02-14T00:51:52;99018.69;;;-2.68;83.73
51261;BME280;61705;46.228;24.812;2023-02-14T00:54:18;99011.88;;;-2.65;83.58
51261;BME280;61705;46.228;24.812;2023-02-14T00:56:45;98995.56;;;-2.62;83.83
51261;BME280;61705;46.228;24.812;2023-02-14T00:59:15;98985.31;;;-2.59;83.69
51261;BME280;61705;46.228;24.812;2023-02-14T01:01:41;98971.66;;;-2.53;83.48
51261;BME280;61705;46.228;24.812;2023-02-14T01:04:08;98979.38;;;-2.55;83.29
51261;BME280;61705;46.228;24.812;2023-02-14T01:06:35;98963.00;;;-2.55;83.36
51261;BME280;61705;46.228;24.812;2023-02-14T01:09:04;98971.34;;;-2.64;83.39
51261;BME280;61705;46.228;24.812;2023-02-14T01:11:30;98953.41;;;-2.59;83.40
51261;BME280;61705;46.228;24.812;2023-02-14T01:13:57;98939.44;;;-2.65;83.35
51261;BME280;61705;46.228;24.812;2023-02-14T01:16:25;98933.50;;;-2.60;83.48
51261;BME280;61705;46.228;24.812;2023-02-14T01:18:53;98928.38;;;-2.59;83.59
51261;BME280;61705;46.228;24.812;2023-02-14T01:21:25;98926.59;;;-2.62;83.54
51261;BME280;61705;46.228;24.812;2023-02-14T01:23:55;98910.31;;;-2.57;83.80
51261;BME280;61705;46.228;24.812;2023-02-14T01:26:22;98906.88;;;-2.56;83.81
51261;BME280;61705;46.228;24.812;2023-02-14T01:28:52;98930.25;;;-2.53;83.91
51261;BME280;61705;46.228;24.812;2023-02-14T01:31:25;98944.72;;;-2.60;84.07
51261;BME280;61705;46.228;24.812;2023-02-14T01:33:53;98912.91;;;-2.57;83.97
51261;BME280;61705;46.228;24.812;2023-02-14T01:36:25;98917.31;;;-2.53;83.81
51261;BME280;61705;46.228;24.812;2023-02-14T01:38:54;98908.56;;;-2.58;83.71
51261;BME280;61705;46.228;24.812;2023-02-14T01:41:26;98896.50;;;-2.58;83.71
51261;BME280;61705;46.228;24.812;2023-02-14T01:43:57;98886.41;;;-2.47;83.37
51261;BME280;61705;46.228;24.812;2023-02-14T01:46:26;98884.56;;;-2.53;83.48
51261;BME280;61705;46.228;24.812;2023-02-14T01:49:12;98881.09;;;-2.53;83.45
51261;BME280;61705;46.228;24.812;2023-02-14T01:52:01;98887.94;;;-2.55;83.34
51261;BME280;61705;46.228;24.812;2023-02-14T01:54:30;98889.59;;;-2.59;83.44
51261;BME280;61705;46.228;24.812;2023-02-14T01:57:05;98901.66;;;-2.59;83.53
51261;BME280;61705;46.228;24.812;2023-02-14T01:59:42;98906.75;;;-2.63;83.26
51261;BME280;61705;46.228;24.812;2023-02-14T02:02:10;98900.59;;;-2.66;83.66
51261;BME280;61705;46.228;24.812;2023-02-14T02:04:40;98886.03;;;-2.63;83.70
51261;BME280;61705;46.228;24.812;2023-02-14T02:07:12;98888.75;;;-2.56;83.45
51261;BME280;61705;46.228;24.812;2023-02-14T02:09:48;98882.69;;;-2.58;83.68
51261;BME280;61705;46.228;24.812;2023-02-14T02:12:18;98873.22;;;-2.58;83.90
51261;BME280;61705;46.228;24.812;2023-02-14T02:14:52;98874.25;;;-2.51;83.58
51261;BME280;61705;46.228;24.812;2023-02-14T02:17:36;98876.81;;;-2.53;83.26
51261;BME280;61705;46.228;24.812;2023-02-14T02:42:35;98874.22;;;-2.53;83.26
51261;BME280;61705;46.228;24.812;2023-02-14T02:44:50;98874.13;;;-2.56;83.28
51261;BME280;61705;46.228;24.812;2023-02-14T02:47:38;98871.50;;;-2.57;83.08
51261;BME280;61705;46.228;24.812;2023-02-14T02:50:21;98864.66;;;-2.55;83.34
51261;BME280;61705;46.228;24.812;2023-02-14T02:53:34;98867.09;;;-2.62;83.46
51261;BME280;61705;46.228;24.812;2023-02-14T02:56:22;98868.75;;;-2.64;83.73
51261;BME280;61705;46.228;24.812;2023-02-14T02:59:17;98873.13;;;-2.61;83.94
51261;BME280;61705;46.228;24.812;2023-02-14T03:02:17;98864.56;;;-2.58;83.68
51261;BME280;61705;46.228;24.812;2023-02-14T03:04:51;98868.00;;;-2.59;83.90
51261;BME280;61705;46.228;24.812;2023-02-14T03:17:35;98880.34;;;-2.49;83.67
51261;BME280;61705;46.228;24.812;2023-02-14T03:20:48;98870.91;;;-2.47;83.65
51261;BME280;61705;46.228;24.812;2023-02-14T03:26:28;98872.59;;;-2.48;83.36
51261;BME280;61705;46.228;24.812;2023-02-14T03:32:08;98857.25;;;-2.42;83.83
51261;BME280;61705;46.228;24.812;2023-02-14T03:34:53;98855.56;;;-2.40;83.51
51261;BME280;61705;46.228;24.812;2023-02-14T03:38:09;98872.00;;;-2.38;83.72
51261;BME280;61705;46.228;24.812;2023-02-14T03:40:41;98861.69;;;-2.36;83.87
51261;BME280;61705;46.228;24.812;2023-02-14T03:43:16;98866.03;;;-2.35;83.76
51261;BME280;61705;46.228;24.812;2023-02-14T03:45:49;98863.56;;;-2.30;83.67
51261;BME280;61705;46.228;24.812;2023-02-14T03:48:22;98860.16;;;-2.28;83.89
51261;BME280;61705;46.228;24.812;2023-02-14T03:50:51;98862.84;;;-2.25;83.77
51261;BME280;61705;46.228;24.812;2023-02-14T03:53:21;98856.72;;;-2.28;84.01
51261;BME280;61705;46.228;24.812;2023-02-14T03:58:36;98867.94;;;-2.28;84.09
51261;BME280;61705;46.228;24.812;2023-02-14T04:01:17;98863.59;;;-2.29;83.69
51261;BME280;61705;46.228;24.812;2023-02-14T04:03:46;98867.16;;;-2.25;83.76
51261;BME280;61705;46.228;24.812;2023-02-14T04:06:16;98866.22;;;-2.27;83.70
51261;BME280;61705;46.228;24.812;2023-02-14T04:08:43;98852.31;;;-2.31;84.10
51261;BME280;61705;46.228;24.812;2023-02-14T04:11:13;98861.03;;;-2.29;84.18
51261;BME280;61705;46.228;24.812;2023-02-14T04:13:40;98859.41;;;-2.24;84.17
51261;BME280;61705;46.228;24.812;2023-02-14T04:16:09;98867.25;;;-2.21;83.57
51261;BME280;61705;46.228;24.812;2023-02-14T04:18:36;98863.72;;;-2.24;83.65
51261;BME280;61705;46.228;24.812;2023-02-14T04:21:24;98859.41;;;-2.24;83.31
51261;BME280;61705;46.228;24.812;2023-02-14T04:23:51;98855.06;;;-2.25;83.42
51261;BME280;61705;46.228;24.812;2023-02-14T04:26:18;98856.81;;;-2.24;83.29
51261;BME280;61705;46.228;24.812;2023-02-14T04:28:44;98856.88;;;-2.22;83.33
51261;BME280;61705;46.228;24.812;2023-02-14T04:31:14;98861.13;;;-2.23;83.58
51261;BME280;61705;46.228;24.812;2023-02-14T04:33:43;98858.63;;;-2.20;83.29
51261;BME280;61705;46.228;24.812;2023-02-14T04:36:15;98861.19;;;-2.21;83.21
51261;BME280;61705;46.228;24.812;2023-02-14T04:38:42;98862.00;;;-2.24;83.58
51261;BME280;61705;46.228;24.812;2023-02-14T04:41:09;98859.41;;;-2.24;83.91
51261;BME280;61705;46.228;24.812;2023-02-14T04:43:36;98858.44;;;-2.27;83.71
51261;BME280;61705;46.228;24.812;2023-02-14T04:46:04;98855.00;;;-2.26;83.81
51261;BME280;61705;46.228;24.812;2023-02-14T04:48:32;98848.19;;;-2.24;84.07
51261;BME280;61705;46.228;24.812;2023-02-14T04:51:01;98843.91;;;-2.22;83.98
51261;BME280;61705;46.228;24.812;2023-02-14T04:53:30;98850.06;;;-2.17;84.01
51261;BME280;61705;46.228;24.812;2023-02-14T04:55:57;98851.88;;;-2.13;83.73
51261;BME280;61705;46.228;24.812;2023-02-14T04:58:26;98857.03;;;-2.15;83.63
51261;BME280;61705;46.228;24.812;2023-02-14T05:00:56;98853.53;;;-2.17;83.89
51261;BME280;61705;46.228;24.812;2023-02-14T05:03:23;98851.72;;;-2.21;83.92
51261;BME280;61705;46.228;24.812;2023-02-14T05:05:53;98852.59;;;-2.20;84.12
51261;BME280;61705;46.228;24.812;2023-02-14T05:08:30;98860.44;;;-2.17;84.04
51261;BME280;61705;46.228;24.812;2023-02-14T05:10:59;98852.69;;;-2.16;84.02
51261;BME280;61705;46.228;24.812;2023-02-14T05:13:29;98856.13;;;-2.17;84.20
51261;BME280;61705;46.228;24.812;2023-02-14T05:15:59;98844.97;;;-2.14;84.30
51261;BME280;61705;46.228;24.812;2023-02-14T05:18:29;98847.56;;;-2.14;84.21
51261;BME280;61705;46.228;24.812;2023-02-14T05:20:55;98857.03;;;-2.15;84.34
51261;BME280;61705;46.228;24.812;2023-02-14T05:23:23;98848.31;;;-2.18;84.30
51261;BME280;61705;46.228;24.812;2023-02-14T05:25:51;98849.22;;;-2.16;84.46
51261;BME280;61705;46.228;24.812;2023-02-14T05:28:22;98863.97;;;-2.12;84.47
51261;BME280;61705;46.228;24.812;2023-02-14T05:30:50;98863.16;;;-2.11;84.53
51261;BME280;61705;46.228;24.812;2023-02-14T05:33:19;98876.97;;;-2.10;84.64
51261;BME280;61705;46.228;24.812;2023-02-14T05:35:46;98875.38;;;-2.05;84.38
51261;BME280;61705;46.228;24.812;2023-02-14T05:38:12;98866.84;;;-2.01;84.39
51261;BME280;61705;46.228;24.812;2023-02-14T05:40:42;98868.75;;;-1.94;84.58
51261;BME280;61705;46.228;24.812;2023-02-14T05:43:11;98868.00;;;-1.88;84.55
51261;BME280;61705;46.228;24.812;2023-02-14T05:45:44;98862.72;;;-1.93;84.15
51261;BME280;61705;46.228;24.812;2023-02-14T05:48:10;98861.03;;;-1.91;84.62
51261;BME280;61705;46.228;24.812;2023-02-14T05:50:37;98874.88;;;-1.91;84.49
51261;BME280;61705;46.228;24.812;2023-02-14T05:53:15;98862.88;;;-1.87;84.41
51261;BME280;61705;46.228;24.812;2023-02-14T05:55:41;98871.44;;;-1.89;84.68
51261;BME280;61705;46.228;24.812;2023-02-14T05:58:08;98876.59;;;-1.89;84.53
51261;BME280;61705;46.228;24.812;2023-02-14T06:00:35;98866.34;;;-1.85;84.45
51261;BME280;61705;46.228;24.812;2023-02-14T06:03:05;98869.78;;;-1.86;84.42
51261;BME280;61705;46.228;24.812;2023-02-14T06:05:34;98862.16;;;-1.80;84.56
51261;BME280;61705;46.228;24.812;2023-02-14T06:08:01;98855.25;;;-1.81;84.57
51261;BME280;61705;46.228;24.812;2023-02-14T06:10:30;98851.75;;;-1.81;84.54
51261;BME280;61705;46.228;24.812;2023-02-14T06:12:59;98855.31;;;-1.76;84.47
51261;BME280;61705;46.228;24.812;2023-02-14T06:15:29;98858.94;;;-1.68;84.48
51261;BME280;61705;46.228;24.812;2023-02-14T06:17:58;98849.41;;;-1.71;84.34
51261;BME280;61705;46.228;24.812;2023-02-14T06:20:25;98844.25;;;-1.71;84.28
51261;BME280;61705;46.228;24.812;2023-02-14T06:22:53;98849.59;;;-1.61;84.47
51261;BME280;61705;46.228;24.812;2023-02-14T06:25:21;98851.38;;;-1.60;84.59
51261;BME280;61705;46.228;24.812;2023-02-14T06:27:48;98860.00;;;-1.60;84.51
51261;BME280;61705;46.228;24.812;2023-02-14T06:30:16;98864.41;;;-1.56;84.26
51261;BME280;61705;46.228;24.812;2023-02-14T06:32:46;98860.09;;;-1.57;84.58
51261;BME280;61705;46.228;24.812;2023-02-14T06:35:13;98858.31;;;-1.58;84.51
51261;BME280;61705;46.228;24.812;2023-02-14T06:37:43;98859.22;;;-1.56;84.38
51261;BME280;61705;46.228;24.812;2023-02-14T06:40:11;98863.69;;;-1.50;84.37
51261;BME280;61705;46.228;24.812;2023-02-14T06:42:38;98858.59;;;-1.46;84.30
51261;BME280;61705;46.228;24.812;2023-02-14T06:45:06;98868.09;;;-1.45;84.41
51261;BME280;61705;46.228;24.812;2023-02-14T06:47:33;98875.06;;;-1.42;84.37
51261;BME280;61705;46.228;24.812;2023-02-14T06:50:02;98871.53;;;-1.46;84.38
51261;BME280;61705;46.228;24.812;2023-02-14T06:52:32;98862.13;;;-1.40;84.18
51261;BME280;61705;46.228;24.812;2023-02-14T06:54:59;98857.81;;;-1.41;84.31
51261;BME280;61705;46.228;24.812;2023-02-14T06:57:27;98870.03;;;-1.36;84.37
51261;BME280;61705;46.228;24.812;2023-02-14T07:00:00;98869.31;;;-1.29;84.31
51261;BME280;61705;46.228;24.812;2023-02-14T07:02:28;98857.22;;;-1.28;84.04
51261;BME280;61705;46.228;24.812;2023-02-14T07:04:55;98855.56;;;-1.25;83.95
51261;BME280;61705;46.228;24.812;2023-02-14T07:07:35;98850.47;;;-1.20;83.93
51261;BME280;61705;46.228;24.812;2023-02-14T07:10:02;98853.22;;;-1.12;84.03
51261;BME280;61705;46.228;24.812;2023-02-14T07:12:29;98855.09;;;-1.05;83.50
51261;BME280;61705;46.228;24.812;2023-02-14T07:14:59;98853.38;;;-1.03;83.13
51261;BME280;61705;46.228;24.812;2023-02-14T07:17:28;98842.19;;;-1.02;83.10
51261;BME280;61705;46.228;24.812;2023-02-14T07:19:57;98848.41;;;-0.92;83.08
51261;BME280;61705;46.228;24.812;2023-02-14T07:22:26;98852.75;;;-0.91;83.18
51261;BME280;61705;46.228;24.812;2023-02-14T07:24:54;98855.38;;;-0.90;83.17
51261;BME280;61705;46.228;24.812;2023-02-14T07:27:21;98857.16;;;-0.87;83.03
51261;BME280;61705;46.228;24.812;2023-02-14T07:29:48;98864.22;;;-0.80;82.71
51261;BME280;61705;46.228;24.812;2023-02-14T07:32:17;98853.78;;;-0.83;82.52
51261;BME280;61705;46.228;24.812;2023-02-14T07:34:48;98853.84;;;-0.80;82.20
51261;BME280;61705;46.228;24.812;2023-02-14T07:37:15;98854.69;;;-0.80;82.26
51261;BME280;61705;46.228;24.812;2023-02-14T07:39:51;98845.25;;;-0.78;82.26
51261;BME280;61705;46.228;24.812;2023-02-14T07:42:17;98836.72;;;-0.69;82.09
51261;BME280;61705;46.228;24.812;2023-02-14T07:44:47;98844.56;;;-0.67;82.04
51261;BME280;61705;46.228;24.812;2023-02-14T07:47:16;98854.88;;;-0.69;81.96
51261;BME280;61705;46.228;24.812;2023-02-14T07:49:43;98849.88;;;-0.61;81.95
51261;BME280;61705;46.228;24.812;2023-02-14T07:52:12;98856.06;;;-0.53;81.95
51261;BME280;61705;46.228;24.812;2023-02-14T07:54:42;98852.59;;;-0.54;81.88
51261;BME280;61705;46.228;24.812;2023-02-14T07:57:11;98847.50;;;-0.47;82.08
51261;BME280;61705;46.228;24.812;2023-02-14T07:59:40;98850.16;;;-0.44;81.66
51261;BME280;61705;46.228;24.812;2023-02-14T08:02:11;98851.16;;;-0.35;81.46
51261;BME280;61705;46.228;24.812;2023-02-14T08:04:38;98855.59;;;-0.28;81.42
51261;BME280;61705;46.228;24.812;2023-02-14T08:07:04;98852.13;;;-0.30;81.33
51261;BME280;61705;46.228;24.812;2023-02-14T08:09:33;98857.38;;;-0.27;81.19
51261;BME280;61705;46.228;24.812;2023-02-14T08:12:01;98859.13;;;-0.26;81.09
51261;BME280;61705;46.228;24.812;2023-02-14T08:14:46;98858.34;;;-0.20;81.06
51261;BME280;61705;46.228;24.812;2023-02-14T08:17:13;98860.97;;;-0.18;80.89
51261;BME280;61705;46.228;24.812;2023-02-14T08:19:40;98864.53;;;-0.13;80.76
51261;BME280;61705;46.228;24.812;2023-02-14T08:22:07;98858.47;;;-0.12;80.57
51261;BME280;61705;46.228;24.812;2023-02-14T08:24:33;98860.19;;;-0.13;80.50
51261;BME280;61705;46.228;24.812;2023-02-14T08:27:00;98868.00;;;-0.13;80.41
51261;BME280;61705;46.228;24.812;2023-02-14T08:29:27;98866.31;;;-0.09;80.42
51261;BME280;61705;46.228;24.812;2023-02-14T08:31:54;98860.25;;;-0.08;80.34
51261;BME280;61705;46.228;24.812;2023-02-14T08:34:20;98862.84;;;-0.08;80.41
51261;BME280;61705;46.228;24.812;2023-02-14T08:36:47;98863.88;;;0.00;80.37
51261;BME280;61705;46.228;24.812;2023-02-14T08:39:14;98859.56;;;0.02;80.19
51261;BME280;61705;46.228;24.812;2023-02-14T08:41:40;98860.41;;;0.01;80.09
51261;BME280;61705;46.228;24.812;2023-02-14T08:44:07;98859.53;;;0.01;80.30
51261;BME280;61705;46.228;24.812;2023-02-14T08:46:34;98859.63;;;0.07;79.89
51261;BME280;61705;46.228;24.812;2023-02-14T08:49:01;98855.31;;;0.09;79.90
51261;BME280;61705;46.228;24.812;2023-02-14T08:51:27;98865.72;;;0.10;79.91
51261;BME280;61705;46.228;24.812;2023-02-14T08:53:57;98859.81;;;0.17;79.86
51261;BME280;61705;46.228;24.812;2023-02-14T08:56:24;98864.09;;;0.17;79.86
51261;BME280;61705;46.228;24.812;2023-02-14T08:58:52;98872.00;;;0.23;79.82
51261;BME280;61705;46.228;24.812;2023-02-14T09:01:21;98875.50;;;0.25;79.55
51261;BME280;61705;46.228;24.812;2023-02-14T09:03:48;98875.56;;;0.30;79.59
51261;BME280;61705;46.228;24.812;2023-02-14T09:06:16;98885.22;;;0.38;79.49
51261;BME280;61705;46.228;24.812;2023-02-14T09:08:44;98882.63;;;0.40;79.34
51261;BME280;61705;46.228;24.812;2023-02-14T09:11:17;98880.13;;;0.47;79.31
51261;BME280;61705;46.228;24.812;2023-02-14T09:13:45;98894.00;;;0.45;79.16
51261;BME280;61705;46.228;24.812;2023-02-14T09:16:14;98896.56;;;0.43;79.01
51261;BME280;61705;46.228;24.812;2023-02-14T09:18:44;98897.56;;;0.53;78.92
51261;BME280;61705;46.228;24.812;2023-02-14T09:21:14;98900.31;;;0.64;78.75
51261;BME280;61705;46.228;24.812;2023-02-14T09:23:41;98902.06;;;0.65;78.83
51261;BME280;61705;46.228;24.812;2023-02-14T09:26:10;98899.50;;;0.68;78.95
51261;BME280;61705;46.228;24.812;2023-02-14T09:28:37;98904.69;;;0.68;78.47
51261;BME280;61705;46.228;24.812;2023-02-14T09:31:16;98896.03;;;0.66;78.39
51261;BME280;61705;46.228;24.812;2023-02-14T09:33:45;98904.66;;;0.65;78.42
51261;BME280;61705;46.228;24.812;2023-02-14T09:36:12;98903.72;;;0.58;78.64
51261;BME280;61705;46.228;24.812;2023-02-14T09:38:41;98895.88;;;0.57;78.61
51261;BME280;61705;46.228;24.812;2023-02-14T09:41:11;98892.41;;;0.56;78.63
51261;BME280;61705;46.228;24.812;2023-02-14T09:43:52;98896.75;;;0.57;78.59
51261;BME280;61705;46.228;24.812;2023-02-14T09:46:25;98887.31;;;0.62;78.51
51261;BME280;61705;46.228;24.812;2023-02-14T09:48:55;98891.69;;;0.68;78.46
51261;BME280;61705;46.228;24.812;2023-02-14T09:51:26;98889.22;;;0.77;78.15
51261;BME280;61705;46.228;24.812;2023-02-14T09:54:01;98878.84;;;0.79;78.32
51261;BME280;61705;46.228;24.812;2023-02-14T09:59:29;98884.19;;;0.89;77.94
51261;BME280;61705;46.228;24.812;2023-02-14T10:02:24;98877.38;;;1.01;77.62
51261;BME280;61705;46.228;24.812;2023-02-14T10:05:25;98882.69;;;1.11;77.41
51261;BME280;61705;46.228;24.812;2023-02-14T10:10:35;98877.78;;;1.37;76.77
51261;BME280;61705;46.228;24.812;2023-02-14T10:15:42;98871.94;;;1.63;75.74
51261;BME280;61705;46.228;24.812;2023-02-14T10:18:36;98865.16;;;1.80;75.52
51261;BME280;61705;46.228;24.812;2023-02-14T10:21:15;98851.31;;;1.86;75.31
51261;BME280;61705;46.228;24.812;2023-02-14T10:23:49;98851.31;;;1.86;75.22
51261;BME280;61705;46.228;24.812;2023-02-14T10:26:37;98848.69;;;1.81;74.97
51261;BME280;61705;46.228;24.812;2023-02-14T10:29:15;98834.78;;;1.82;75.09
51261;BME280;61705;46.228;24.812;2023-02-14T10:31:58;98832.28;;;1.96;74.75
51261;BME280;61705;46.228;24.812;2023-02-14T10:34:47;98828.88;;;2.06;74.22
51261;BME280;61705;46.228;24.812;2023-02-14T10:42:55;98817.63;;;2.15;74.82
51261;BME280;61705;46.228;24.812;2023-02-14T10:53:55;98805.59;;;2.34;74.87
51261;BME280;61705;46.228;24.812;2023-02-14T10:56:33;98809.97;;;2.46;74.78
51261;BME280;61705;46.228;24.812;2023-02-14T10:59:12;98803.00;;;2.37;74.63
51261;BME280;61705;46.228;24.812;2023-02-14T11:01:42;98803.88;;;2.37;74.32
51261;BME280;61705;46.228;24.812;2023-02-14T11:04:10;98796.06;;;2.44;73.97
51261;BME280;61705;46.228;24.812;2023-02-14T11:06:39;98799.53;;;2.41;74.01
51261;BME280;61705;46.228;24.812;2023-02-14T11:09:09;98805.56;;;2.32;74.34
51261;BME280;61705;46.228;24.812;2023-02-14T11:11:58;98813.38;;;2.32;74.71
51261;BME280;61705;46.228;24.812;2023-02-14T11:14:28;98818.59;;;2.31;74.91
51261;BME280;61705;46.228;24.812;2023-02-14T11:16:56;98816.84;;;2.28;74.81
51261;BME280;61705;46.228;24.812;2023-02-14T11:19:33;98807.38;;;2.40;74.64
51261;BME280;61705;46.228;24.812;2023-02-14T11:22:02;98811.72;;;2.41;74.79
51261;BME280;61705;46.228;24.812;2023-02-14T11:24:38;98809.09;;;2.42;74.62
51261;BME280;61705;46.228;24.812;2023-02-14T11:27:16;98806.59;;;2.65;74.25
51261;BME280;61705;46.228;24.812;2023-02-14T11:29:47;98811.84;;;2.73;74.49
51261;BME280;61705;46.228;24.812;2023-02-14T11:32:26;98804.88;;;2.64;74.50
51261;BME280;61705;46.228;24.812;2023-02-14T11:35:04;98803.09;;;2.58;74.42
51261;BME280;61705;46.228;24.812;2023-02-14T11:37:42;98795.28;;;2.65;74.22
51261;BME280;61705;46.228;24.812;2023-02-14T11:40:30;98786.59;;;2.69;74.41
51261;BME280;61705;46.228;24.812;2023-02-14T11:43:00;98789.25;;;2.70;74.40
51261;BME280;61705;46.228;24.812;2023-02-14T11:45:44;98784.84;;;2.57;74.32
51261;BME280;61705;46.228;24.812;2023-02-14T11:51:05;98780.44;;;2.47;74.56
51261;BME280;61705;46.228;24.812;2023-02-14T11:53:53;98776.06;;;2.40;74.57
51261;BME280;61705;46.228;24.812;2023-02-14T11:56:22;98774.25;;;2.32;74.69
51261;BME280;61705;46.228;24.812;2023-02-14T11:59:00;98769.06;;;2.38;74.91
51261;BME280;61705;46.228;24.812;2023-02-14T12:01:33;98771.69;;;2.34;74.96
51261;BME280;61705;46.228;24.812;2023-02-14T12:04:04;98773.38;;;2.27;74.98
51261;BME280;61705;46.228;24.812;2023-02-14T12:06:35;98769.03;;;2.23;75.05
51261;BME280;61705;46.228;24.812;2023-02-14T12:11:59;98772.47;;;2.19;75.43
51261;BME280;61705;46.228;24.812;2023-02-14T12:14:29;98777.69;;;2.22;75.35
51261;BME280;61705;46.228;24.812;2023-02-14T12:22:18;98762.06;;;2.28;75.37
51261;BME280;61705;46.228;24.812;2023-02-14T12:27:22;98767.28;;;2.24;75.47
51261;BME280;61705;46.228;24.812;2023-02-14T12:29:55;98763.78;;;2.22;75.64
51261;BME280;61705;46.228;24.812;2023-02-14T12:32:28;98772.44;;;2.14;75.87
51261;BME280;61705;46.228;24.812;2023-02-14T12:35:04;98773.31;;;2.13;76.02
51261;BME280;61705;46.228;24.812;2023-02-14T12:43:41;98746.38;;;2.22;75.93
51261;BME280;61705;46.228;24.812;2023-02-14T12:46:20;98744.72;;;2.33;75.59
51261;BME280;61705;46.228;24.812;2023-02-14T13:04:21;98740.44;;;2.48;75.23
51261;BME280;61705;46.228;24.812;2023-02-14T13:09:33;98729.22;;;2.75;74.49
51261;BME280;61705;46.228;24.812;2023-02-14T13:12:20;98738.78;;;2.83;74.57
51261;BME280;61705;46.228;24.812;2023-02-14T13:15:08;98737.94;;;2.84;74.46
51261;BME280;61705;46.228;24.812;2023-02-14T13:23:19;98737.88;;;2.63;74.01
51261;BME280;61705;46.228;24.812;2023-02-14T13:25:53;98734.41;;;2.61;74.09
51261;BME280;61705;46.228;24.812;2023-02-14T13:28:22;98733.47;;;2.47;74.24
51261;BME280;61705;46.228;24.812;2023-02-14T13:30:49;98737.78;;;2.38;74.50
51261;BME280;61705;46.228;24.812;2023-02-14T13:33:25;98734.34;;;2.40;74.72
51261;BME280;61705;46.228;24.812;2023-02-14T13:35:57;98735.22;;;2.46;74.43
51261;BME280;61705;46.228;24.812;2023-02-14T13:38:29;98739.56;;;2.47;74.75
51261;BME280;61705;46.228;24.812;2023-02-14T13:40:58;98738.66;;;2.39;74.95
51261;BME280;61705;46.228;24.812;2023-02-14T13:43:48;98738.63;;;2.34;75.35
51261;BME280;61705;46.228;24.812;2023-02-14T13:46:28;98736.03;;;2.33;75.29
51261;BME280;61705;46.228;24.812;2023-02-14T13:49:25;98737.75;;;2.29;75.50
51261;BME280;61705;46.228;24.812;2023-02-14T13:51:56;98741.25;;;2.39;75.19
51261;BME280;61705;46.228;24.812;2023-02-14T13:56:58;98740.41;;;2.37;75.31
51261;BME280;61705;46.228;24.812;2023-02-14T13:59:32;98729.94;;;2.32;75.45
51261;BME280;61705;46.228;24.812;2023-02-14T14:04:57;98717.78;;;2.34;75.19
51261;BME280;61705;46.228;24.812;2023-02-14T14:07:27;98729.94;;;2.29;75.29
51261;BME280;61705;46.228;24.812;2023-02-14T14:09:59;98728.16;;;2.25;75.60
51261;BME280;61705;46.228;24.812;2023-02-14T14:17:40;98724.66;;;2.17;76.05
51261;BME280;61705;46.228;24.812;2023-02-14T14:22:59;98723.81;;;2.23;75.98
51261;BME280;61705;46.228;24.812;2023-02-14T14:25:38;98715.97;;;2.21;76.20
51261;BME280;61705;46.228;24.812;2023-02-14T14:28:21;98717.75;;;2.27;76.31
51261;BME280;61705;46.228;24.812;2023-02-14T14:30:53;98709.91;;;2.25;76.51
51261;BME280;61705;46.228;24.812;2023-02-14T14:36:04;98707.25;;;2.18;76.43
51261;BME280;61705;46.228;24.812;2023-02-14T14:38:45;98716.84;;;2.16;76.45
51261;BME280;61705;46.228;24.812;2023-02-14T14:41:12;98715.06;;;2.10;76.51
51261;BME280;61705;46.228;24.812;2023-02-14T14:43:39;98715.91;;;2.06;76.87
51261;BME280;61705;46.228;24.812;2023-02-14T14:46:10;98721.97;;;2.03;77.04
51261;BME280;61705;46.228;24.812;2023-02-14T14:48:48;98710.69;;;2.04;77.01
51261;BME280;61705;46.228;24.812;2023-02-14T14:51:32;98715.88;;;2.01;77.44
51261;BME280;61705;46.228;24.812;2023-02-14T14:54:02;98717.56;;;1.93;77.68
51261;BME280;61705;46.228;24.812;2023-02-14T14:56:34;98725.38;;;1.88;77.82
51261;BME280;61705;46.228;24.812;2023-02-14T15:01:43;98717.53;;;1.85;78.26
51261;BME280;61705;46.228;24.812;2023-02-14T15:04:14;98723.63;;;1.90;78.17
51261;BME280;61705;46.228;24.812;2023-02-14T15:06:42;98723.59;;;1.83;78.20
51261;BME280;61705;46.228;24.812;2023-02-14T15:09:21;98730.50;;;1.76;78.61
51261;BME280;61705;46.228;24.812;2023-02-14T15:11:51;98718.34;;;1.75;78.69
51261;BME280;61705;46.228;24.812;2023-02-14T15:14:40;98719.22;;;1.76;78.67
51261;BME280;61705;46.228;24.812;2023-02-14T15:17:21;98715.75;;;1.75;78.78
51261;BME280;61705;46.228;24.812;2023-02-14T15:19:54;98716.59;;;1.74;78.82
51261;BME280;61705;46.228;24.812;2023-02-14T15:22:26;98721.81;;;1.71;78.91
51261;BME280;61705;46.228;24.812;2023-02-14T15:24:56;98720.03;;;1.70;78.88
51261;BME280;61705;46.228;24.812;2023-02-14T15:27:25;98716.59;;;1.74;78.73